Time;durP1;ratioP1;P1;durP2;ratioP2;P2;SDS_P1;SDS_P2;PMS_P1;PMS_P2;Temp;Humidity;BMP_temperature;BMP_pressure;BME280_temperature;BME280_humidity;BME280_pressure;Samples;Min_cycle;Max_cycle;Signal;HPM_P1;HPM_P2
2022/04/24 00:00:38;;;;;;;;;;;;;;;25.98;29.33;100167.94;5073612;28;1445;-34
2022/04/24 00:03:04;;;;;;;;;;;;;;;26.00;29.33;100174.81;5068346;28;942;-36
2022/04/24 00:05:29;;;;;;;;;;;;;;;26.01;29.35;100173.78;5057498;28;807;-38
2022/04/24 00:07:55;;;;;;;;;;;;;;;26.07;29.05;100174.91;5058431;28;938;-35
2022/04/24 00:10:20;;;;;;;;;;;;;;;26.02;29.21;100175.47;5057848;28;785;-35
2022/04/24 00:12:45;;;;;;;;;;;;;;;26.03;29.05;100169.06;5065370;28;1910;-35
2022/04/24 00:15:11;;;;;;;;;;;;;;;26.03;29.24;100168.19;5058347;28;825;-35
2022/04/24 00:17:36;;;;;;;;;;;;;;;26.02;28.90;100175.47;5065071;28;849;-35
2022/04/24 00:20:02;;;;;;;;;;;;;;;26.03;29.44;100177.13;5057619;28;746;-37
2022/04/24 00:22:27;;;;;;;;;;;;;;;25.95;29.33;100190.72;5057932;28;806;-33
2022/04/24 00:24:52;;;;;;;;;;;;;;;25.98;29.37;100190.34;5060829;28;960;-37
2022/04/24 00:27:18;;;;;;;;;;;;;;;26.02;29.15;100193.50;5065999;28;812;-34
2022/04/24 00:29:43;;;;;;;;;;;;;;;26.02;28.90;100185.41;5057514;28;814;-35
2022/04/24 00:32:08;;;;;;;;;;;;;;;26.07;29.13;100193.78;5061706;28;962;-35
2022/04/24 00:34:34;;;;;;;;;;;;;;;26.03;29.48;100195.16;5056884;28;1957;-35
2022/04/24 00:36:59;;;;;;;;;;;;;;;26.12;28.96;100195.88;5057540;28;769;-35
2022/04/24 00:39:24;;;;;;;;;;;;;;;26.09;29.03;100193.56;5061820;28;837;-35
2022/04/24 00:41:50;;;;;;;;;;;;;;;25.99;29.04;100186.59;5057016;28;785;-37
2022/04/24 00:44:16;;;;;;;;;;;;;;;26.00;29.28;100192.84;5057294;28;838;-37
2022/04/24 00:46:42;;;;;;;;;;;;;;;26.05;29.00;100198.50;5058149;28;904;-34
2022/04/24 00:49:08;;;;;;;;;;;;;;;25.94;29.13;100196.31;5057111;28;814;-37
2022/04/24 00:51:33;;;;;;;;;;;;;;;25.96;29.12;100192.38;5069251;28;1109;-36
2022/04/24 00:53:59;;;;;;;;;;;;;;;25.98;29.30;100195.72;5056842;28;1898;-34
2022/04/24 00:56:30;;;;;;;;;;;;;;;26.02;29.13;100204.28;5056822;28;817;-34
2022/04/24 00:58:55;;;;;;;;;;;;;;;25.98;29.12;100203.81;5070054;28;783;-38
2022/04/24 01:01:20;;;;;;;;;;;;;;;25.94;29.35;100204.38;5095257;28;1068;-36
2022/04/24 01:03:46;;;;;;;;;;;;;;;25.98;29.44;100211.91;5085507;28;862;-35
2022/04/24 01:06:11;;;;;;;;;;;;;;;25.99;29.27;100212.75;5077101;28;781;-36
2022/04/24 01:08:36;;;;;;;;;;;;;;;25.94;29.23;100216.00;5057980;28;1102;-36
2022/04/24 01:11:02;;;;;;;;;;;;;;;26.04;29.04;100215.72;5076511;28;813;-37
2022/04/24 01:13:27;;;;;;;;;;;;;;;25.99;29.28;100204.66;5076702;28;1966;-36
2022/04/24 01:15:56;;;;;;;;;;;;;;;25.90;29.18;100207.47;5079824;28;899;-37
2022/04/24 01:18:21;;;;;;;;;;;;;;;26.01;29.17;100205.28;5084469;28;881;-36
2022/04/24 01:20:47;;;;;;;;;;;;;;;25.89;29.49;100208.47;5078177;28;859;-36
2022/04/24 01:23:13;;;;;;;;;;;;;;;25.96;29.34;100211.25;5078906;28;770;-37
2022/04/24 01:25:39;;;;;;;;;;;;;;;25.95;29.14;100200.66;5076032;28;1309;-35
2022/04/24 01:28:08;;;;;;;;;;;;;;;25.98;29.12;100211.91;5076227;28;849;-35
2022/04/24 01:30:33;;;;;;;;;;;;;;;26.03;28.88;100205.94;5085399;28;923;-36
2022/04/24 01:32:58;;;;;;;;;;;;;;;25.98;29.25;100213.75;5078512;28;1953;-37
2022/04/24 01:35:24;;;;;;;;;;;;;;;25.89;29.17;100211.16;5076481;28;897;-33
2022/04/24 01:37:49;;;;;;;;;;;;;;;25.91;29.15;100211.81;5076176;28;836;-35
2022/04/24 01:40:14;;;;;;;;;;;;;;;25.89;29.25;100216.53;5075814;28;813;-35
2022/04/24 01:42:40;;;;;;;;;;;;;;;25.92;29.48;100215.34;5082646;28;844;-37
2022/04/24 01:45:05;;;;;;;;;;;;;;;25.95;29.34;100209.59;5058378;28;806;-35
2022/04/24 01:47:31;;;;;;;;;;;;;;;25.99;29.08;100218.13;5083275;28;877;-35
2022/04/24 01:49:56;;;;;;;;;;;;;;;25.95;29.23;100214.13;5076136;28;1062;-36
2022/04/24 01:52:21;;;;;;;;;;;;;;;25.85;29.48;100214.41;5076098;28;833;-34
2022/04/24 01:54:46;;;;;;;;;;;;;;;25.90;29.59;100218.25;5078948;28;1914;-34
2022/04/24 01:57:12;;;;;;;;;;;;;;;25.92;29.40;100224.25;5076363;28;813;-34
2022/04/24 01:59:37;;;;;;;;;;;;;;;25.90;29.47;100222.78;5075403;28;1084;-34
2022/04/24 02:02:02;;;;;;;;;;;;;;;25.87;29.54;100223.16;5070381;28;856;-37
2022/04/24 02:04:28;;;;;;;;;;;;;;;25.92;29.53;100229.63;5074757;28;797;-35
2022/04/24 02:06:53;;;;;;;;;;;;;;;25.89;29.43;100231.91;5074980;28;881;-35
2022/04/24 02:09:18;;;;;;;;;;;;;;;25.88;29.50;100230.22;5075274;28;793;-36
2022/04/24 02:11:44;;;;;;;;;;;;;;;25.86;29.40;100229.59;5075420;28;807;-36
2022/04/24 02:14:09;;;;;;;;;;;;;;;25.90;29.54;100229.00;5075506;28;1910;-36
2022/04/24 02:16:34;;;;;;;;;;;;;;;25.87;29.56;100228.53;5074047;28;875;-35
2022/04/24 02:19:00;;;;;;;;;;;;;;;25.88;29.69;100224.81;5071904;28;797;-36
2022/04/24 02:21:27;;;;;;;;;;;;;;;25.83;29.44;100228.09;5074758;28;880;-37
2022/04/24 02:23:53;;;;;;;;;;;;;;;25.85;29.54;100225.19;5075331;28;762;-37
2022/04/24 02:26:18;;;;;;;;;;;;;;;25.88;29.35;100227.50;5079057;28;934;-33
2022/04/24 02:28:43;;;;;;;;;;;;;;;25.92;29.27;100228.81;5078783;28;861;-34
2022/04/24 02:31:09;;;;;;;;;;;;;;;25.86;29.23;100229.59;5079410;28;721;-37
2022/04/24 02:33:34;;;;;;;;;;;;;;;25.80;29.38;100225.75;5068989;28;1967;-38
2022/04/24 02:35:59;;;;;;;;;;;;;;;25.87;29.52;100233.94;5079042;28;837;-34
2022/04/24 02:38:24;;;;;;;;;;;;;;;25.78;29.68;100227.81;5079132;28;846;-31
2022/04/24 02:40:50;;;;;;;;;;;;;;;25.86;29.50;100235.78;5071916;28;767;-33
2022/04/24 02:43:15;;;;;;;;;;;;;;;25.87;29.41;100239.31;5078657;28;836;-33
2022/04/24 02:45:40;;;;;;;;;;;;;;;25.82;29.49;100239.91;5078781;28;837;-33
2022/04/24 02:48:06;;;;;;;;;;;;;;;25.87;29.23;100240.19;5077229;28;1036;-34
2022/04/24 02:50:31;;;;;;;;;;;;;;;25.83;29.41;100241.56;5078923;28;826;-36
2022/04/24 02:52:56;;;;;;;;;;;;;;;25.84;29.39;100243.22;5078614;28;1898;-33
2022/04/24 02:55:22;;;;;;;;;;;;;;;25.86;29.61;100251.97;5078278;28;774;-36
2022/04/24 02:57:47;;;;;;;;;;;;;;;25.84;29.47;100258.56;5078470;28;789;-35
2022/04/24 03:00:14;;;;;;;;;;;;;;;25.79;29.50;100265.34;5078381;28;1191;-38
2022/04/24 03:02:42;;;;;;;;;;;;;;;25.81;29.32;100259.75;5071825;28;823;-35
2022/04/24 03:05:09;;;;;;;;;;;;;;;25.79;29.51;100261.81;5078339;28;1048;-38
2022/04/24 03:07:34;;;;;;;;;;;;;;;25.80;29.67;100274.25;5078677;28;778;-36
2022/04/24 03:09:59;;;;;;;;;;;;;;;25.83;29.54;100273.03;5077984;28;746;-33
2022/04/24 03:12:25;;;;;;;;;;;;;;;25.86;29.22;100275.38;5078314;28;862;-33
2022/04/24 03:14:50;;;;;;;;;;;;;;;25.75;29.46;100282.06;5060510;28;1967;-36
2022/04/24 03:17:15;;;;;;;;;;;;;;;25.85;29.51;100289.88;5073526;28;878;-36
2022/04/24 03:19:40;;;;;;;;;;;;;;;25.80;29.56;100283.19;5078381;28;1059;-36
2022/04/24 03:22:06;;;;;;;;;;;;;;;25.68;29.82;100290.03;5078140;28;889;-34
2022/04/24 03:24:31;;;;;;;;;;;;;;;25.36;28.34;100286.63;5071001;28;891;-33
2022/04/24 03:26:56;;;;;;;;;;;;;;;24.82;28.41;100286.53;5078529;28;750;-31
2022/04/24 03:29:24;;;;;;;;;;;;;;;24.52;28.90;100292.59;5077983;28;792;-31
2022/04/24 03:31:49;;;;;;;;;;;;;;;24.46;29.00;100293.28;5074889;28;871;-30
2022/04/24 03:34:14;;;;;;;;;;;;;;;24.41;28.88;100299.19;5078170;28;1894;-29
2022/04/24 03:36:40;;;;;;;;;;;;;;;24.31;29.13;100298.56;5076633;28;1013;-34
2022/04/24 03:39:05;;;;;;;;;;;;;;;24.24;29.39;100303.78;5077284;28;992;-33
2022/04/24 03:41:31;;;;;;;;;;;;;;;24.13;29.46;100310.38;5077609;28;841;-30
2022/04/24 03:43:56;;;;;;;;;;;;;;;24.05;29.70;100305.88;5078048;28;746;-31
2022/04/24 03:46:21;;;;;;;;;;;;;;;24.02;29.93;100322.34;5077253;28;927;-31
2022/04/24 03:48:47;;;;;;;;;;;;;;;23.97;29.80;100320.13;5076737;28;1092;-33
2022/04/24 03:51:12;;;;;;;;;;;;;;;23.93;29.95;100316.13;5077485;28;792;-31
2022/04/24 03:53:37;;;;;;;;;;;;;;;24.66;30.59;100320.56;5077008;28;1898;-30
2022/04/24 03:56:03;;;;;;;;;;;;;;;24.94;29.40;100321.97;5077944;28;1417;-37
2022/04/24 03:58:28;;;;;;;;;;;;;;;24.98;29.35;100319.72;5077543;28;775;-34
2022/04/24 04:00:54;;;;;;;;;;;;;;;25.00;29.20;100317.69;5077207;28;1048;-35
2022/04/24 04:03:19;;;;;;;;;;;;;;;25.06;29.37;100327.72;5076689;28;844;-36
2022/04/24 04:05:44;;;;;;;;;;;;;;;24.97;29.60;100329.66;5077085;28;874;-39
2022/04/24 04:08:09;;;;;;;;;;;;;;;25.26;29.20;100324.56;5077388;28;813;-37
2022/04/24 04:10:35;;;;;;;;;;;;;;;25.10;29.56;100331.75;5077174;28;833;-34
2022/04/24 04:13:04;;;;;;;;;;;;;;;25.12;29.79;100335.13;5076237;28;1960;-33
2022/04/24 04:15:29;;;;;;;;;;;;;;;25.02;29.99;100335.34;5076485;28;1271;-31
2022/04/24 04:17:55;;;;;;;;;;;;;;;25.10;30.02;100339.84;5073525;28;1250;-38
2022/04/24 04:20:20;;;;;;;;;;;;;;;25.09;29.84;100342.72;5076903;28;1239;-36
2022/04/24 04:22:48;;;;;;;;;;;;;;;25.14;29.96;100343.81;5076853;28;1222;-34
2022/04/24 04:25:13;;;;;;;;;;;;;;;25.14;30.15;100343.81;5074086;28;1503;-36
2022/04/24 04:27:38;;;;;;;;;;;;;;;25.28;29.97;100352.97;5076023;28;1314;-38
2022/04/24 04:30:04;;;;;;;;;;;;;;;25.22;29.79;100350.19;5076290;28;1222;-33
2022/04/24 04:32:29;;;;;;;;;;;;;;;25.38;29.57;100351.88;5076483;28;1309;-39
2022/04/24 04:34:54;;;;;;;;;;;;;;;25.34;29.65;100347.91;5076122;28;1902;-37
2022/04/24 04:37:19;;;;;;;;;;;;;;;25.31;29.76;100354.47;5076011;28;1119;-37
2022/04/24 04:39:45;;;;;;;;;;;;;;;25.26;29.97;100359.56;5076201;28;1223;-37
2022/04/24 04:42:10;;;;;;;;;;;;;;;25.24;29.94;100365.13;5075950;28;1147;-37
2022/04/24 04:44:35;;;;;;;;;;;;;;;25.28;29.85;100362.91;5075938;28;1107;-39
2022/04/24 04:47:01;;;;;;;;;;;;;;;25.32;29.78;100372.31;5075583;28;1230;-36
2022/04/24 04:49:28;;;;;;;;;;;;;;;25.42;29.62;100358.59;5076212;28;1251;-38
2022/04/24 04:51:53;;;;;;;;;;;;;;;25.51;29.72;100360.19;5076098;28;865;-38
2022/04/24 04:54:18;;;;;;;;;;;;;;;26.76;27.84;100366.97;5076153;28;1945;-39
2022/04/24 04:56:44;;;;;;;;;;;;;;;26.97;27.86;100372.59;5076643;28;797;-38
2022/04/24 04:59:09;;;;;;;;;;;;;;;26.92;27.72;100369.63;5076380;28;1068;-38
2022/04/24 05:01:34;;;;;;;;;;;;;;;26.85;27.74;100375.78;5075648;28;835;-37
2022/04/24 05:03:59;;;;;;;;;;;;;;;26.85;27.85;100380.34;5076709;28;770;-39
2022/04/24 05:06:25;;;;;;;;;;;;;;;26.86;27.77;100380.16;5075894;28;766;-39
2022/04/24 05:08:50;;;;;;;;;;;;;;;26.85;27.69;100374.94;5076010;28;754;-39
2022/04/24 05:11:16;;;;;;;;;;;;;;;26.87;27.81;100381.84;5076072;28;952;-37
2022/04/24 05:13:41;;;;;;;;;;;;;;;26.95;27.77;100377.34;5076528;28;1984;-39
2022/04/24 05:16:06;;;;;;;;;;;;;;;26.98;27.60;100374.25;5075936;28;881;-38
2022/04/24 05:18:31;;;;;;;;;;;;;;;27.00;27.36;100367.66;5072949;28;1005;-39
2022/04/24 05:20:57;;;;;;;;;;;;;;;27.02;27.64;100373.72;5076313;28;855;-39
2022/04/24 05:23:22;;;;;;;;;;;;;;;26.96;27.92;100369.03;5075751;28;861;-38
2022/04/24 05:25:48;;;;;;;;;;;;;;;27.09;27.47;100364.84;5076040;28;826;-39
2022/04/24 05:28:13;;;;;;;;;;;;;;;27.10;27.84;100371.91;5076170;28;758;-39
2022/04/24 05:30:39;;;;;;;;;;;;;;;27.09;27.68;100364.84;5075858;28;801;-38
2022/04/24 05:33:04;;;;;;;;;;;;;;;27.10;27.74;100371.91;5075923;28;1890;-39
2022/04/24 05:35:29;;;;;;;;;;;;;;;27.12;27.77;100375.25;5075821;28;950;-38
2022/04/24 05:37:55;;;;;;;;;;;;;;;27.21;27.58;100375.97;5075219;28;1068;-37
2022/04/24 05:40:20;;;;;;;;;;;;;;;28.16;26.45;100372.13;5075613;28;1297;-38
2022/04/24 05:42:53;;;;;;;;;;;;;;;27.80;26.97;100379.41;5075188;28;1270;-36
2022/04/24 05:45:22;;;;;;;;;;;;;;;27.55;27.21;100379.81;5073466;28;1045;-38
2022/04/24 05:47:47;;;;;;;;;;;;;;;27.41;27.28;100378.03;5073066;28;1255;-39
2022/04/24 05:50:12;;;;;;;;;;;;;;;27.42;27.68;100377.00;5075404;28;1155;-38
2022/04/24 05:52:38;;;;;;;;;;;;;;;27.38;27.52;100376.53;5075296;28;978;-38
2022/04/24 05:55:03;;;;;;;;;;;;;;;27.40;27.22;100377.19;5075493;28;1901;-38
2022/04/24 05:57:28;;;;;;;;;;;;;;;27.34;27.47;100386.88;5075031;28;1191;-37
2022/04/24 05:59:54;;;;;;;;;;;;;;;27.38;27.70;100377.38;5083797;28;1305;-37
2022/04/24 06:02:19;;;;;;;;;;;;;;;27.43;27.54;100376.78;5099516;28;1392;-38
2022/04/24 06:04:44;;;;;;;;;;;;;;;27.48;27.19;100384.31;5099189;28;1234;-36
2022/04/24 06:07:10;;;;;;;;;;;;;;;27.42;27.22;100390.50;5099740;28;1199;-39
2022/04/24 06:09:35;;;;;;;;;;;;;;;28.14;26.58;100397.72;5099297;28;1262;-38
2022/04/24 06:12:01;;;;;;;;;;;;;;;28.78;25.63;100398.47;5098913;28;1234;-38
2022/04/24 06:14:26;;;;;;;;;;;;;;;28.99;25.26;100395.84;5099292;28;1906;-36
2022/04/24 06:16:52;;;;;;;;;;;;;;;29.10;25.17;100397.97;5099199;28;1221;-39
2022/04/24 06:19:17;;;;;;;;;;;;;;;29.10;25.25;100403.38;5099243;28;1251;-39
2022/04/24 06:21:43;;;;;;;;;;;;;;;29.40;24.90;100405.72;5098776;28;1234;-38
2022/04/24 06:24:08;;;;;;;;;;;;;;;29.21;25.31;100404.66;5096487;28;1222;-39
2022/04/24 06:26:33;;;;;;;;;;;;;;;28.75;25.67;100406.16;5099070;28;1234;-39
2022/04/24 06:28:58;;;;;;;;;;;;;;;28.42;26.21;100404.97;5098715;28;1266;-39
2022/04/24 06:31:24;;;;;;;;;;;;;;;28.21;26.54;100407.53;5099575;28;778;-38
2022/04/24 06:33:49;;;;;;;;;;;;;;;28.15;26.32;100413.75;5085947;28;1903;-31
2022/04/24 06:36:14;;;;;;;;;;;;;;;28.28;26.72;100418.41;5079706;28;865;-36
2022/04/24 06:38:40;;;;;;;;;;;;;;;28.20;27.01;100414.00;5079994;28;765;-32
2022/04/24 06:41:05;;;;;;;;;;;;;;;28.15;26.72;100410.19;5079955;28;805;-34
2022/04/24 06:43:30;;;;;;;;;;;;;;;28.62;26.10;100406.94;5079408;28;975;-30
2022/04/24 06:45:55;;;;;;;;;;;;;;;29.21;25.62;100402.75;5079233;28;822;-35
2022/04/24 06:48:21;;;;;;;;;;;;;;;29.01;25.77;100404.63;5090322;28;887;-33
2022/04/24 06:50:46;;;;;;;;;;;;;;;29.21;25.49;100408.19;5078911;28;940;-41
2022/04/24 06:53:12;;;;;;;;;;;;;;;28.85;26.20;100421.00;5079190;28;1886;-33
2022/04/24 06:55:41;;;;;;;;;;;;;;;28.66;26.04;100411.75;5079284;28;849;-39
2022/04/24 06:58:07;;;;;;;;;;;;;;;28.58;26.23;100407.34;5060790;28;952;-39
2022/04/24 07:00:33;;;;;;;;;;;;;;;28.51;26.27;100411.88;5094707;28;1099;-38
2022/04/24 07:02:59;;;;;;;;;;;;;;;28.51;25.98;100414.59;5097835;28;1304;-37
2022/04/24 07:05:25;;;;;;;;;;;;;;;28.53;26.26;100411.69;5098175;28;1238;-35
2022/04/24 07:07:50;;;;;;;;;;;;;;;28.64;26.21;100407.56;5098507;28;873;-37
2022/04/24 07:10:16;;;;;;;;;;;;;;;28.64;25.87;100413.84;5098358;28;794;-37
2022/04/24 07:12:45;;;;;;;;;;;;;;;28.57;26.19;100413.81;5095790;28;914;-37
2022/04/24 07:15:10;;;;;;;;;;;;;;;28.57;26.05;100407.53;5078827;28;1997;-37
2022/04/24 07:17:35;;;;;;;;;;;;;;;28.57;26.03;100408.38;5086130;28;868;-40
2022/04/24 07:20:00;;;;;;;;;;;;;;;28.33;26.61;100404.28;5078613;28;916;-37
2022/04/24 07:22:26;;;;;;;;;;;;;;;29.17;25.40;100406.09;5079043;28;892;-35
2022/04/24 07:24:51;;;;;;;;;;;;;;;29.61;24.94;100406.59;5092836;28;1091;-38
2022/04/24 07:27:16;;;;;;;;;;;;;;;29.18;25.06;100405.88;5098052;28;1234;-36
2022/04/24 07:29:41;;;;;;;;;;;;;;;29.06;25.41;100407.53;5097928;28;1286;-36
2022/04/24 07:32:07;;;;;;;;;;;;;;;29.00;25.21;100406.47;5097905;28;1309;-38
2022/04/24 07:34:32;;;;;;;;;;;;;;;28.99;25.28;100399.41;5097510;28;1897;-37
2022/04/24 07:36:59;;;;;;;;;;;;;;;28.98;25.48;100405.03;5097585;28;1194;-35
2022/04/24 07:39:24;;;;;;;;;;;;;;;28.97;25.39;100404.19;5095954;28;1063;-34
2022/04/24 07:41:49;;;;;;;;;;;;;;;28.97;25.75;100404.19;5098041;28;1169;-34
2022/04/24 07:44:15;;;;;;;;;;;;;;;28.95;25.74;100404.34;5096918;28;1416;-33
2022/04/24 07:46:40;;;;;;;;;;;;;;;28.95;25.64;100407.06;5097442;28;1201;-37
2022/04/24 07:49:05;;;;;;;;;;;;;;;28.94;25.85;100404.56;5096650;28;1326;-37
2022/04/24 07:51:31;;;;;;;;;;;;;;;28.93;25.73;100400.16;5096792;28;1099;-37
2022/04/24 07:53:56;;;;;;;;;;;;;;;28.96;25.83;100395.19;5097387;28;1913;-37
2022/04/24 07:56:21;;;;;;;;;;;;;;;29.42;25.39;100394.66;5097534;28;1254;-38
2022/04/24 07:58:47;;;;;;;;;;;;;;;29.72;25.07;100396.16;5096800;28;1107;-38
2022/04/24 08:01:16;;;;;;;;;;;;;;;29.30;25.42;100395.28;5095018;28;1268;-34
2022/04/24 08:03:42;;;;;;;;;;;;;;;29.06;25.52;100396.72;5091015;28;984;-37
2022/04/24 08:06:07;;;;;;;;;;;;;;;29.03;25.41;100391.72;5077395;28;958;-36
2022/04/24 08:08:33;;;;;;;;;;;;;;;29.02;25.49;100388.16;5078065;28;850;-36
2022/04/24 08:10:58;;;;;;;;;;;;;;;28.72;25.80;100396.56;5077937;28;839;-35
2022/04/24 08:13:24;;;;;;;;;;;;;;;28.47;26.14;100386.28;5077517;28;1910;-37
2022/04/24 08:15:49;;;;;;;;;;;;;;;28.42;26.18;100388.75;5078261;28;846;-32
2022/04/24 08:18:14;;;;;;;;;;;;;;;28.53;26.15;100382.75;5095102;28;882;-34
2022/04/24 08:20:40;;;;;;;;;;;;;;;28.52;26.43;100380.25;5096696;28;1234;-37
2022/04/24 08:23:05;;;;;;;;;;;;;;;28.63;26.30;100378.84;5096425;28;1218;-35
2022/04/24 08:25:35;;;;;;;;;;;;;;;28.76;26.00;100376.16;5096822;28;1436;-38
2022/04/24 08:28:02;;;;;;;;;;;;;;;28.80;26.05;100373.91;5096802;28;1234;-32
2022/04/24 08:30:27;;;;;;;;;;;;;;;28.87;25.91;100371.22;5096451;28;1363;-34
2022/04/24 08:32:52;;;;;;;;;;;;;;;29.52;25.33;100372.56;5096480;28;1226;-37
2022/04/24 08:35:18;;;;;;;;;;;;;;;29.47;25.32;100375.91;5096712;28;1949;-35
2022/04/24 08:37:44;;;;;;;;;;;;;;;28.81;26.00;100370.16;5097041;28;1290;-36
2022/04/24 08:40:10;;;;;;;;;;;;;;;28.75;25.85;100371.81;5096661;28;1321;-37
2022/04/24 08:42:36;;;;;;;;;;;;;;;28.72;26.03;100369.50;5095872;28;949;-37
2022/04/24 08:45:02;;;;;;;;;;;;;;;28.56;26.11;100366.13;5096003;28;1253;-37
2022/04/24 08:47:27;;;;;;;;;;;;;;;28.47;26.25;100370.03;5094600;28;1305;-36
2022/04/24 08:49:56;;;;;;;;;;;;;;;28.44;26.28;100373.16;5096029;28;1172;-37
2022/04/24 08:52:21;;;;;;;;;;;;;;;28.57;25.97;100370.50;5094606;28;1238;-36
2022/04/24 08:54:47;;;;;;;;;;;;;;;28.50;26.07;100368.78;5095649;28;1894;-37
2022/04/24 08:57:12;;;;;;;;;;;;;;;28.44;26.53;100367.75;5077778;28;1359;-35
2022/04/24 08:59:37;;;;;;;;;;;;;;;28.35;26.65;100365.22;5096214;28;1199;-36
2022/04/24 09:02:03;;;;;;;;;;;;;;;28.23;27.03;100364.91;5096301;28;1107;-35
2022/04/24 09:04:32;;;;;;;;;;;;;;;28.24;26.86;100361.16;5096030;28;1206;-38
2022/04/24 09:06:57;;;;;;;;;;;;;;;28.45;26.87;100364.00;5096079;28;1096;-33
2022/04/24 09:09:23;;;;;;;;;;;;;;;28.22;26.77;100363.25;5096067;28;1075;-32
2022/04/24 09:11:48;;;;;;;;;;;;;;;28.41;26.57;100360.03;5096139;28;1214;-36
2022/04/24 09:14:18;;;;;;;;;;;;;;;28.43;26.47;100357.94;5096007;28;1957;-30
2022/04/24 09:16:47;;;;;;;;;;;;;;;28.36;26.29;100361.47;5095627;28;1051;-38
2022/04/24 09:19:20;;;;;;;;;;;;;;;28.41;26.19;100360.84;5095526;28;1219;-31
2022/04/24 09:21:45;;;;;;;;;;;;;;;28.44;26.17;100356.91;5095137;28;1008;-34
2022/04/24 09:24:11;;;;;;;;;;;;;;;28.37;26.31;100356.88;5095904;28;1194;-31
2022/04/24 09:26:36;;;;;;;;;;;;;;;28.30;26.21;100356.81;5095561;28;1143;-31
2022/04/24 09:29:01;;;;;;;;;;;;;;;28.42;26.42;100345.47;5095633;28;1092;-39
2022/04/24 09:31:29;;;;;;;;;;;;;;;28.36;26.49;100350.63;5095716;28;1277;-34
2022/04/24 09:33:55;;;;;;;;;;;;;;;28.47;26.29;100341.13;5094191;28;1890;-30
2022/04/24 09:36:23;;;;;;;;;;;;;;;28.40;26.68;100342.97;5095471;28;1048;-38
2022/04/24 09:38:48;;;;;;;;;;;;;;;28.18;26.78;100345.75;5096150;28;1222;-35
2022/04/24 09:41:15;;;;;;;;;;;;;;;29.50;25.42;100339.41;5095155;28;1289;-37
2022/04/24 09:43:41;;;;;;;;;;;;;;;29.28;25.43;100329.63;5095626;28;1253;-35
2022/04/24 09:46:06;;;;;;;;;;;;;;;28.75;26.03;100339.31;5095575;28;1226;-36
2022/04/24 09:48:31;;;;;;;;;;;;;;;28.71;26.12;100333.47;5094923;28;1306;-39
2022/04/24 09:50:56;;;;;;;;;;;;;;;28.47;26.40;100333.00;5095604;28;1201;-37
2022/04/24 09:53:22;;;;;;;;;;;;;;;28.43;26.30;100336.28;5067755;28;1961;-36
2022/04/24 09:55:50;;;;;;;;;;;;;;;28.46;26.30;100335.91;5076264;28;971;-37
2022/04/24 09:58:16;;;;;;;;;;;;;;;28.28;26.69;100331.03;5078207;28;930;-37
2022/04/24 10:00:41;;;;;;;;;;;;;;;28.39;26.46;100324.22;5075484;28;1190;-36
2022/04/24 10:03:08;;;;;;;;;;;;;;;28.30;26.42;100335.19;5072567;28;1254;-38
2022/04/24 10:05:33;;;;;;;;;;;;;;;28.33;26.79;100332.09;5057269;28;1252;-36
2022/04/24 10:07:59;;;;;;;;;;;;;;;28.13;26.65;100334.69;5075634;28;1274;-39
2022/04/24 10:10:24;;;;;;;;;;;;;;;28.29;26.27;100332.69;5074806;28;1281;-38
2022/04/24 10:12:50;;;;;;;;;;;;;;;28.10;26.65;100335.94;5074796;28;1235;-35
2022/04/24 10:15:16;;;;;;;;;;;;;;;29.43;25.22;100334.84;5057702;28;1981;-33
2022/04/24 10:18:03;;;;;;;;;;;;;;;29.42;25.11;100326.94;5056567;28;1607;-38
2022/04/24 10:20:44;;;;;;;;;;;;;;;28.68;26.04;100328.47;5074986;28;1230;-38
2022/04/24 10:23:09;;;;;;;;;;;;;;;28.56;26.25;100322.81;5074602;28;1262;-38
2022/04/24 10:25:41;;;;;;;;;;;;;;;28.59;26.08;100327.81;5074725;28;1129;-36
2022/04/24 10:28:10;;;;;;;;;;;;;;;28.54;26.24;100327.63;5074927;28;1087;-38
2022/04/24 10:30:36;;;;;;;;;;;;;;;28.54;26.50;100324.06;5075149;28;1167;-35
2022/04/24 10:33:18;;;;;;;;;;;;;;;28.46;26.39;100328.63;5074378;28;1132;-37
2022/04/24 10:35:48;;;;;;;;;;;;;;;28.46;26.26;100322.38;5075142;28;1199;-35
2022/04/24 10:38:13;;;;;;;;;;;;;;;28.35;26.63;100334.59;5072309;28;1197;-37
2022/04/24 10:40:39;;;;;;;;;;;;;;;28.49;26.73;100330.09;5074722;28;1243;-37
2022/04/24 10:43:07;;;;;;;;;;;;;;;28.75;25.93;100333.06;5075009;28;1226;-38
2022/04/24 10:45:32;;;;;;;;;;;;;;;28.88;25.83;100338.50;5073418;28;1183;-38
2022/04/24 10:48:03;;;;;;;;;;;;;;;29.06;25.79;100334.44;5059672;28;1426;-36
2022/04/24 10:50:28;;;;;;;;;;;;;;;29.64;25.13;100335.72;5078216;28;1242;-35
2022/04/24 10:52:55;;;;;;;;;;;;;;;29.39;25.35;100325.47;5079081;28;770;-36
2022/04/24 10:55:24;;;;;;;;;;;;;;;28.95;25.77;100328.53;5078399;28;1914;-34
2022/04/24 10:57:54;;;;;;;;;;;;;;;28.83;25.96;100333.72;5078581;28;833;-37
2022/04/24 11:00:22;;;;;;;;;;;;;;;28.75;26.25;100324.94;5078843;28;1151;-33
2022/04/24 11:02:47;;;;;;;;;;;;;;;28.69;26.21;100329.31;5060005;28;884;-37
2022/04/24 11:05:17;;;;;;;;;;;;;;;28.75;26.09;100320.38;5060845;28;1326;-38
2022/04/24 11:07:46;;;;;;;;;;;;;;;28.72;26.36;100327.03;5078498;28;814;-39
2022/04/24 11:10:11;;;;;;;;;;;;;;;28.85;25.99;100320.81;5078227;28;837;-38
2022/04/24 11:12:37;;;;;;;;;;;;;;;28.92;25.84;100318.13;5078740;28;933;-39
2022/04/24 11:15:03;;;;;;;;;;;;;;;29.07;25.63;100320.69;5078199;28;1913;-38
2022/04/24 11:17:28;;;;;;;;;;;;;;;29.05;25.74;100313.78;5077627;28;967;-38
2022/04/24 11:19:58;;;;;;;;;;;;;;;29.11;25.87;100318.41;5078884;28;918;-37
2022/04/24 11:22:23;;;;;;;;;;;;;;;28.95;26.07;100317.72;5078744;28;815;-37
2022/04/24 11:24:48;;;;;;;;;;;;;;;29.54;25.31;100308.16;5060377;28;860;-38
2022/04/24 11:27:14;;;;;;;;;;;;;;;30.07;24.65;100317.25;5077713;28;889;-38
2022/04/24 11:29:39;;;;;;;;;;;;;;;29.36;25.67;100300.69;5078546;28;911;-38
2022/04/24 11:32:07;;;;;;;;;;;;;;;28.99;25.76;100310.06;5072630;28;931;-38
2022/04/24 11:34:33;;;;;;;;;;;;;;;28.80;26.28;100298.09;5072156;28;1957;-38
2022/04/24 11:36:58;;;;;;;;;;;;;;;28.71;26.57;100303.72;5078060;28;805;-37
2022/04/24 11:39:24;;;;;;;;;;;;;;;28.83;26.06;100301.25;5077552;28;865;-36
2022/04/24 11:41:53;;;;;;;;;;;;;;;28.79;26.05;100291.88;5077612;28;853;-37
2022/04/24 11:52:37;;;;;;;;;;;;;;;28.58;26.64;100284.72;5071265;28;766;-37
2022/04/24 11:55:09;;;;;;;;;;;;;;;28.53;26.78;100279.94;5077663;28;1897;-39
2022/04/24 11:57:34;;;;;;;;;;;;;;;28.44;26.75;100275.75;5059051;28;781;-37
2022/04/24 11:59:59;;;;;;;;;;;;;;;29.38;25.50;100283.16;5077663;28;1141;-39
2022/04/24 12:02:28;;;;;;;;;;;;;;;29.72;25.12;100288.56;5077026;28;860;-39
2022/04/24 12:04:53;;;;;;;;;;;;;;;29.22;25.63;100279.00;5076150;28;1305;-38
2022/04/24 12:07:19;;;;;;;;;;;;;;;29.09;25.51;100274.44;5076594;28;1027;-35
2022/04/24 12:09:44;;;;;;;;;;;;;;;29.16;25.74;100267.13;5076786;28;1068;-37
2022/04/24 12:12:10;;;;;;;;;;;;;;;29.24;25.54;100270.66;5076926;28;1096;-37
2022/04/24 12:14:36;;;;;;;;;;;;;;;29.27;25.44;100267.53;5076732;28;1967;-38
2022/04/24 12:17:02;;;;;;;;;;;;;;;29.05;25.79;100267.75;5076572;28;1122;-39
2022/04/24 12:19:27;;;;;;;;;;;;;;;28.92;26.08;100269.41;5077042;28;1041;-36
2022/04/24 12:21:53;;;;;;;;;;;;;;;28.83;26.23;100276.03;5077143;28;1282;-37
2022/04/24 12:24:18;;;;;;;;;;;;;;;28.81;26.30;100276.25;5076243;28;1135;-34
2022/04/24 12:26:51;;;;;;;;;;;;;;;28.76;26.53;100264.38;5076570;28;1061;-36
2022/04/24 12:29:17;;;;;;;;;;;;;;;28.72;26.62;100274.78;5076488;28;1207;-35
2022/04/24 12:31:42;;;;;;;;;;;;;;;28.72;26.36;100267.50;5075251;28;1092;-35
2022/04/24 12:34:08;;;;;;;;;;;;;;;28.95;26.25;100262.72;5076077;28;1961;-38
2022/04/24 12:36:33;;;;;;;;;;;;;;;29.63;25.43;100268.97;5076929;28;1215;-38
2022/04/24 12:39:08;;;;;;;;;;;;;;;29.80;25.21;100266.66;5076892;28;753;-38
2022/04/24 12:41:36;;;;;;;;;;;;;;;29.39;25.35;100267.75;5076618;28;1469;-38
2022/04/24 12:44:02;;;;;;;;;;;;;;;29.36;25.47;100270.88;5076638;28;800;-37
2022/04/24 12:46:27;;;;;;;;;;;;;;;29.21;25.59;100258.41;5076408;28;891;-38
2022/04/24 12:48:53;;;;;;;;;;;;;;;29.08;25.70;100257.34;5075432;28;776;-38
2022/04/24 12:51:21;;;;;;;;;;;;;;;29.07;26.06;100260.25;5076767;28;875;-37